Time;durP1;ratioP1;P1;durP2;ratioP2;P2;SDS_P1;SDS_P2;PMS_P1;PMS_P2;Temp;Humidity;BMP_temperature;BMP_pressure;BME280_temperature;BME280_humidity;BME280_pressure;Samples;Min_cycle;Max_cycle;Signal;HPM_P1;HPM_P2
2021/09/27 00:01:25;;;;;;;;;;;;;;;13.08;95.36;98377.83;1751695;82;20238;-82
2021/09/27 00:03:52;;;;;;;;;;;;;;;13.06;96.00;98377.83;1751183;82;21830;-82
2021/09/27 00:06:18;;;;;;;;;;;;;;;13.09;95.24;98373.20;1751436;82;20219;-82
2021/09/27 00:08:44;;;;;;;;;;;;;;;13.08;95.16;98374.30;1751221;82;20213;-82
2021/09/27 00:11:17;;;;;;;;;;;;;;;12.99;97.57;98372.20;1751282;82;20126;-82
2021/09/27 00:13:44;;;;;;;;;;;;;;;13.01;97.54;98371.10;1751363;82;20418;-82
2021/09/27 00:16:11;;;;;;;;;;;;;;;13.01;97.55;98366.47;1750446;82;21112;-82
2021/09/27 00:18:36;;;;;;;;;;;;;;;13.02;96.56;98363.20;1751234;82;20411;-82
2021/09/27 00:21:04;;;;;;;;;;;;;;;12.99;96.06;98359.96;1751214;82;20205;-82
2021/09/27 00:23:32;;;;;;;;;;;;;;;13.00;95.06;98364.85;1751246;82;20422;-82
2021/09/27 00:25:58;;;;;;;;;;;;;;;12.87;97.30;98364.14;1750205;81;20144;-82
2021/09/27 00:28:24;;;;;;;;;;;;;;;12.85;97.39;98367.70;1738297;82;21097;-82
2021/09/27 00:30:49;;;;;;;;;;;;;;;12.87;96.67;98369.59;1738224;82;20691;-82
2021/09/27 00:33:17;;;;;;;;;;;;;;;12.89;96.98;98368.74;1738312;82;20183;-82
2021/09/27 00:35:43;;;;;;;;;;;;;;;12.94;97.02;98368.70;1738354;82;20181;-82
2021/09/27 00:38:09;;;;;;;;;;;;;;;12.99;96.85;98373.56;1738436;82;20187;-82
2021/09/27 00:40:38;;;;;;;;;;;;;;;13.04;96.53;98377.31;1738388;82;21092;-82
2021/09/27 00:43:04;;;;;;;;;;;;;;;13.08;95.03;98379.19;1738260;82;20173;-82
2021/09/27 00:45:32;;;;;;;;;;;;;;;13.04;95.07;98378.67;1711453;82;20246;-82
2021/09/27 00:47:58;;;;;;;;;;;;;;;12.96;95.18;98378.19;1738918;82;20132;-82
2021/09/27 00:50:27;;;;;;;;;;;;;;;12.92;96.55;98380.43;1738349;82;20203;-82
2021/09/27 00:52:53;;;;;;;;;;;;;;;12.96;96.33;98373.30;1738423;82;21143;-82
2021/09/27 00:55:20;;;;;;;;;;;;;;;12.95;95.43;98370.33;1738207;82;20155;-82
2021/09/27 00:57:45;;;;;;;;;;;;;;;12.94;95.46;98368.16;1738495;82;20112;-82
2021/09/27 01:00:13;;;;;;;;;;;;;;;12.95;95.20;98367.61;1738314;82;20183;-82
2021/09/27 01:02:39;;;;;;;;;;;;;;;12.93;95.08;98364.37;1738459;82;20165;-82
2021/09/27 01:05:05;;;;;;;;;;;;;;;12.91;95.21;98358.41;1738272;82;20606;-82
2021/09/27 01:07:55;;;;;;;;;;;;;;;12.86;95.46;98363.34;1738452;82;20192;-82
2021/09/27 01:10:58;;;;;;;;;;;;;;;12.79;95.81;98362.05;1722717;82;20459;-82
2021/09/27 01:13:43;;;;;;;;;;;;;;;12.71;95.76;98349.87;1738469;82;20137;-82
2021/09/27 01:16:34;;;;;;;;;;;;;;;12.67;97.43;98350.19;1738220;82;20128;-82
2021/09/27 01:19:29;;;;;;;;;;;;;;;12.70;97.92;98346.89;1738332;82;22158;-82
2021/09/27 01:22:21;;;;;;;;;;;;;;;12.80;96.01;98349.52;1717456;82;20150;-82
2021/09/27 01:25:23;;;;;;;;;;;;;;;12.73;95.58;98342.78;1736475;82;20168;-82
2021/09/27 01:28:15;;;;;;;;;;;;;;;12.72;95.57;98344.69;1738383;81;20212;-82
2021/09/27 01:30:48;;;;;;;;;;;;;;;12.65;95.46;98349.67;1738303;82;20351;-82
2021/09/27 01:33:37;;;;;;;;;;;;;;;12.57;95.87;98349.73;1738267;82;21154;-82
2021/09/27 01:36:16;;;;;;;;;;;;;;;12.55;95.72;98345.66;1738519;82;20132;-82
2021/09/27 01:38:57;;;;;;;;;;;;;;;12.51;95.58;98345.42;1738033;82;20199;-82
2021/09/27 01:41:49;;;;;;;;;;;;;;;12.47;95.85;98347.06;1738803;82;20173;-81
2021/09/27 01:44:35;;;;;;;;;;;;;;;12.52;95.78;98346.23;1738134;82;20153;-82
2021/09/27 01:47:03;;;;;;;;;;;;;;;12.47;96.28;98346.26;1738660;82;21222;-82
2021/09/27 01:49:35;;;;;;;;;;;;;;;12.49;96.19;98346.81;1738352;82;20133;-82
2021/09/27 01:52:05;;;;;;;;;;;;;;;12.51;95.86;98348.14;1738528;82;20127;-82
2021/09/27 01:54:40;;;;;;;;;;;;;;;12.50;95.60;98351.15;1737388;82;20141;-82
2021/09/27 01:57:24;;;;;;;;;;;;;;;12.46;95.85;98351.44;1738286;82;20164;-81
2021/09/27 02:00:14;;;;;;;;;;;;;;;12.37;95.92;98349.88;1738382;82;21715;-82
2021/09/27 02:02:56;;;;;;;;;;;;;;;12.35;96.78;98350.70;1738279;82;20145;-82
2021/09/27 02:05:25;;;;;;;;;;;;;;;12.36;97.97;98346.89;1738226;82;20192;-82
2021/09/27 02:07:55;;;;;;;;;;;;;;;12.42;97.32;98348.48;1738203;82;20203;-81
2021/09/27 02:10:24;;;;;;;;;;;;;;;12.42;97.86;98347.94;1738033;82;20172;-82
2021/09/27 02:13:02;;;;;;;;;;;;;;;12.50;95.98;98350.59;1738431;82;21204;-82
2021/09/27 02:15:34;;;;;;;;;;;;;;;12.42;95.73;98351.20;1738209;82;20141;-82
2021/09/27 02:18:07;;;;;;;;;;;;;;;12.32;95.87;98340.41;1737339;82;20141;-82
2021/09/27 02:20:41;;;;;;;;;;;;;;;12.27;96.29;98339.08;1738525;82;20448;-82
2021/09/27 02:23:31;;;;;;;;;;;;;;;12.27;95.96;98345.33;1738356;82;20145;-82
2021/09/27 02:25:57;;;;;;;;;;;;;;;12.26;95.49;98350.50;1676978;85;21151;-82
2021/09/27 02:28:23;;;;;;;;;;;;;;;12.19;95.66;98344.56;1695751;84;20296;-82
2021/09/27 02:30:56;;;;;;;;;;;;;;;12.22;95.42;98347.25;1715959;81;20145;-82
2021/09/27 02:33:46;;;;;;;;;;;;;;;12.13;95.46;98344.32;1765627;81;20265;-82
2021/09/27 02:36:19;;;;;;;;;;;;;;;12.12;95.87;98350.30;1765719;81;20158;-82
2021/09/27 02:38:54;;;;;;;;;;;;;;;12.12;95.46;98344.88;1737421;81;21763;-82
2021/09/27 02:41:26;;;;;;;;;;;;;;;12.10;95.55;98348.42;1765152;81;20139;-82
2021/09/27 02:43:52;;;;;;;;;;;;;;;12.04;95.54;98341.39;1765436;81;20430;-82
2021/09/27 02:46:19;;;;;;;;;;;;;;;12.06;96.17;98340.59;1765814;81;20646;-82
2021/09/27 02:48:55;;;;;;;;;;;;;;;12.12;96.00;98348.95;1765423;81;20155;-82
2021/09/27 02:51:13;;;;;;;;;;;;;;;12.15;95.66;98342.16;1764379;81;22056;-82
2021/09/27 02:53:39;;;;;;;;;;;;;;;12.11;95.67;98344.61;1765468;81;20146;-82
2021/09/27 02:56:37;;;;;;;;;;;;;;;12.08;95.73;98332.16;1765427;81;20142;-82
2021/09/27 02:59:23;;;;;;;;;;;;;;;12.05;95.66;98338.97;1765408;81;20138;-82
2021/09/27 03:01:58;;;;;;;;;;;;;;;12.06;96.68;98333.80;1765828;81;20142;-82
2021/09/27 03:04:40;;;;;;;;;;;;;;;12.11;95.70;98335.66;1753687;81;21132;-82
2021/09/27 03:07:28;;;;;;;;;;;;;;;12.09;95.67;98344.09;1765058;81;20135;-82
2021/09/27 03:10:09;;;;;;;;;;;;;;;12.05;95.70;98330.02;1765172;81;20166;-82
2021/09/27 03:12:39;;;;;;;;;;;;;;;11.96;95.71;98333.03;1766172;81;20143;-82
2021/09/27 03:15:17;;;;;;;;;;;;;;;11.88;95.87;98332.25;1763931;81;20139;-82
2021/09/27 03:18:06;;;;;;;;;;;;;;;11.80;95.86;98327.70;1765402;81;21727;-82
2021/09/27 03:21:08;;;;;;;;;;;;;;;11.80;96.09;98329.06;1765346;81;20169;-82
2021/09/27 03:23:55;;;;;;;;;;;;;;;11.75;96.17;98331.77;1765079;81;20131;-82
2021/09/27 03:26:31;;;;;;;;;;;;;;;11.76;96.16;98324.42;1765726;81;20177;-82
2021/09/27 03:29:06;;;;;;;;;;;;;;;11.76;96.58;98321.72;1765493;81;20402;-82
2021/09/27 03:31:39;;;;;;;;;;;;;;;11.72;97.10;98324.19;1765810;81;21352;-82
2021/09/27 03:34:11;;;;;;;;;;;;;;;11.78;96.56;98315.45;1765323;81;20181;-81
2021/09/27 03:36:50;;;;;;;;;;;;;;;11.84;96.21;98308.39;1749005;81;20143;-82
2021/09/27 03:39:52;;;;;;;;;;;;;;;11.79;96.26;98313.84;1765617;81;20422;-82
2021/09/27 03:42:22;;;;;;;;;;;;;;;11.77;95.97;98313.28;1765810;81;20434;-82
2021/09/27 03:44:57;;;;;;;;;;;;;;;11.78;95.97;98318.16;1765381;81;21832;-82
2021/09/27 03:47:44;;;;;;;;;;;;;;;11.80;95.98;98320.11;1765478;81;20135;-82
2021/09/27 03:50:20;;;;;;;;;;;;;;;11.72;95.94;98315.23;1765442;81;20408;-82
2021/09/27 03:52:52;;;;;;;;;;;;;;;11.65;96.39;98310.10;1765756;81;20410;-82
2021/09/27 03:55:27;;;;;;;;;;;;;;;11.69;96.05;98309.80;1765753;81;20158;-82
2021/09/27 03:57:59;;;;;;;;;;;;;;;11.63;95.89;98308.22;1765596;81;21214;-82
2021/09/27 04:00:40;;;;;;;;;;;;;;;11.58;96.14;98309.05;1765181;81;20373;-82
2021/09/27 04:03:12;;;;;;;;;;;;;;;11.60;96.10;98301.97;1765008;81;20421;-82
2021/09/27 04:05:42;;;;;;;;;;;;;;;11.59;95.92;98301.16;1763884;81;20410;-82
2021/09/27 04:08:23;;;;;;;;;;;;;;;11.58;95.79;98302.27;1765295;81;20434;-82
2021/09/27 04:11:15;;;;;;;;;;;;;;;11.62;96.25;98294.91;1765580;81;21841;-82
2021/09/27 04:14:14;;;;;;;;;;;;;;;11.65;96.37;98297.08;1748194;81;20230;-82
2021/09/27 04:16:52;;;;;;;;;;;;;;;11.63;97.08;98296.55;1765785;81;20142;-82
2021/09/27 04:19:34;;;;;;;;;;;;;;;11.57;97.02;98297.92;1765505;81;20157;-82
2021/09/27 04:22:23;;;;;;;;;;;;;;;11.52;97.04;98301.20;1765133;81;20145;-82
2021/09/27 04:24:58;;;;;;;;;;;;;;;11.49;97.81;98305.84;1765533;81;21147;-82
2021/09/27 04:27:47;;;;;;;;;;;;;;;11.48;96.54;98306.38;1763045;81;20143;-82
2021/09/27 04:30:20;;;;;;;;;;;;;;;11.42;97.00;98314.82;1750871;82;20147;-82
2021/09/27 04:33:08;;;;;;;;;;;;;;;11.42;96.70;98314.82;1751487;82;20155;-82
2021/09/27 04:35:53;;;;;;;;;;;;;;;11.41;97.52;98321.34;1751338;82;20147;-82
2021/09/27 04:38:18;;;;;;;;;;;;;;;11.44;98.04;98322.13;1751426;82;21221;-82
2021/09/27 04:41:11;;;;;;;;;;;;;;;11.44;98.21;98323.48;1751126;82;20787;-82
2021/09/27 04:43:44;;;;;;;;;;;;;;;11.49;96.71;98323.48;1751688;82;20159;-82
2021/09/27 04:46:32;;;;;;;;;;;;;;;11.47;96.89;98322.41;1751184;82;20399;-82
2021/09/27 04:49:05;;;;;;;;;;;;;;;11.50;96.26;98323.19;1751261;82;20438;-82
2021/09/27 04:51:34;;;;;;;;;;;;;;;11.51;96.15;98328.08;1751548;82;21119;-82
2021/09/27 04:54:21;;;;;;;;;;;;;;;11.56;96.52;98328.88;1751637;82;20151;-82
2021/09/27 04:57:02;;;;;;;;;;;;;;;11.65;96.05;98332.36;1751487;82;20407;-82
2021/09/27 05:00:03;;;;;;;;;;;;;;;11.55;96.02;98335.39;1750788;82;20442;-82
2021/09/27 05:02:50;;;;;;;;;;;;;;;11.50;96.89;98331.87;1751418;82;20147;-82
2021/09/27 05:05:25;;;;;;;;;;;;;;;11.57;96.20;98337.28;1751216;82;21118;-82
2021/09/27 05:07:57;;;;;;;;;;;;;;;11.57;96.60;98337.28;1751501;82;20292;-82
2021/09/27 05:11:02;;;;;;;;;;;;;;;11.60;96.27;98329.11;1751217;82;20123;-82
2021/09/27 05:13:53;;;;;;;;;;;;;;;11.61;96.48;98334.81;1750537;82;20140;-82
2021/09/27 05:16:22;;;;;;;;;;;;;;;11.69;95.51;98341.02;1751670;82;20131;-82
2021/09/27 05:19:04;;;;;;;;;;;;;;;11.68;96.38;98329.89;1751688;82;21054;-82
2021/09/27 05:21:43;;;;;;;;;;;;;;;11.78;95.93;98328.48;1749971;82;21007;-82
2021/09/27 05:24:27;;;;;;;;;;;;;;;11.90;95.86;98334.17;1751488;82;20143;-82
2021/09/27 05:27:12;;;;;;;;;;;;;;;11.97;95.36;98334.67;1751039;82;20147;-82
2021/09/27 05:30:03;;;;;;;;;;;;;;;12.01;95.05;98339.25;1738151;81;20435;-82
2021/09/27 05:32:32;;;;;;;;;;;;;;;12.04;95.14;98340.58;1649805;87;22037;-82
2021/09/27 05:35:17;;;;;;;;;;;;;;;12.16;95.07;98339.70;1649723;87;20147;-82
2021/09/27 05:38:03;;;;;;;;;;;;;;;12.21;94.43;98341.56;1692642;82;20425;-82
2021/09/27 05:40:45;;;;;;;;;;;;;;;12.18;94.08;98340.23;1738201;82;20417;-82
2021/09/27 05:43:17;;;;;;;;;;;;;;;12.19;94.12;98343.20;1708847;82;20462;-82
2021/09/27 05:45:55;;;;;;;;;;;;;;;12.08;94.33;98346.55;1738565;82;21054;-82
2021/09/27 05:48:28;;;;;;;;;;;;;;;12.05;94.93;98340.33;1738391;82;20298;-82
2021/09/27 05:51:04;;;;;;;;;;;;;;;12.10;94.11;98342.99;1738203;82;20468;-82
2021/09/27 05:53:39;;;;;;;;;;;;;;;12.03;94.76;98339.77;1738846;82;20172;-82
2021/09/27 05:56:30;;;;;;;;;;;;;;;12.08;95.43;98337.59;1737987;82;20141;-82
2021/09/27 05:59:18;;;;;;;;;;;;;;;12.13;95.36;98342.45;1738329;82;20988;-82
2021/09/27 06:02:06;;;;;;;;;;;;;;;12.20;95.04;98334.50;1738394;82;20133;-82
2021/09/27 06:05:11;;;;;;;;;;;;;;;12.26;94.77;98336.91;1738360;82;20483;-82
2021/09/27 06:08:01;;;;;;;;;;;;;;;12.37;94.53;98340.36;1738451;82;20544;-82
2021/09/27 06:10:39;;;;;;;;;;;;;;;12.42;93.92;98338.42;1737997;82;20149;-82
2021/09/27 06:13:24;;;;;;;;;;;;;;;12.48;94.02;98342.47;1738608;82;22014;-82
2021/09/27 06:15:55;;;;;;;;;;;;;;;12.56;94.06;98334.52;1738329;82;20088;-82
2021/09/27 06:18:33;;;;;;;;;;;;;;;12.65;93.67;98340.97;1738640;82;20143;-82
2021/09/27 06:21:11;;;;;;;;;;;;;;;12.69;93.17;98339.83;1737819;82;20141;-82
2021/09/27 06:23:44;;;;;;;;;;;;;;;12.71;92.95;98338.99;1737931;82;20149;-82
2021/09/27 06:26:11;;;;;;;;;;;;;;;12.64;92.99;98344.75;1738642;82;21003;-82
2021/09/27 06:28:49;;;;;;;;;;;;;;;12.68;93.12;98341.74;1738126;81;20484;-82
2021/09/27 06:31:38;;;;;;;;;;;;;;;12.73;92.67;98337.34;1737954;82;20167;-82
2021/09/27 06:34:19;;;;;;;;;;;;;;;12.74;93.11;98337.08;1738394;82;20165;-82
2021/09/27 06:36:45;;;;;;;;;;;;;;;12.73;93.38;98327.83;1738538;82;20173;-81
2021/09/27 06:39:14;;;;;;;;;;;;;;;12.74;93.79;98328.11;1738422;82;21045;-82
2021/09/27 06:41:40;;;;;;;;;;;;;;;12.79;93.53;98326.14;1738333;82;20141;-82
2021/09/27 06:44:06;;;;;;;;;;;;;;;12.93;92.96;98324.93;1738277;82;20186;-82
2021/09/27 06:46:31;;;;;;;;;;;;;;;12.98;92.97;98330.30;1738435;82;20582;-82
2021/09/27 06:48:57;;;;;;;;;;;;;;;13.09;92.72;98329.67;1738309;82;20155;-82
2021/09/27 06:51:23;;;;;;;;;;;;;;;13.41;91.39;98331.22;1738469;82;21877;-82
2021/09/27 06:53:49;;;;;;;;;;;;;;;13.90;89.49;98328.69;1738227;82;20166;-82
2021/09/27 06:56:14;;;;;;;;;;;;;;;14.21;87.91;98331.80;1738148;82;20187;-82
2021/09/27 06:58:40;;;;;;;;;;;;;;;14.77;86.96;98324.09;1738318;82;20234;-82
2021/09/27 07:01:06;;;;;;;;;;;;;;;15.32;84.96;98324.73;1738194;82;20159;-82
2021/09/27 07:03:31;;;;;;;;;;;;;;;15.79;81.25;98318.85;1738237;82;21959;-82
2021/09/27 07:05:57;;;;;;;;;;;;;;;16.37;78.89;98318.64;1738323;82;20178;-82
2021/09/27 07:08:23;;;;;;;;;;;;;;;17.15;79.95;98307.63;1738780;82;20205;-82
2021/09/27 07:10:50;;;;;;;;;;;;;;;17.72;74.96;98313.18;1738492;82;20135;-82
2021/09/27 07:13:16;;;;;;;;;;;;;;;18.13;73.18;98312.52;1735806;82;20188;-82
2021/09/27 07:15:42;;;;;;;;;;;;;;;18.77;74.24;98305.22;1738342;82;21045;-83
2021/09/27 07:18:08;;;;;;;;;;;;;;;19.23;73.18;98301.44;1738491;82;20442;-83
2021/09/27 07:20:34;;;;;;;;;;;;;;;19.54;75.12;98299.77;1738371;82;20218;-83
2021/09/27 07:23:00;;;;;;;;;;;;;;;19.91;71.61;98294.81;1738629;82;20663;-83
2021/09/27 07:25:27;;;;;;;;;;;;;;;20.25;67.69;98292.91;1738304;82;20235;-83
2021/09/27 07:27:53;;;;;;;;;;;;;;;20.38;64.81;98295.17;1738999;81;21044;-83
2021/09/27 07:30:19;;;;;;;;;;;;;;;20.64;67.05;98293.58;1735484;81;20152;-83
2021/09/27 07:32:45;;;;;;;;;;;;;;;20.70;64.87;98295.79;1765835;81;20465;-83
2021/09/27 07:35:12;;;;;;;;;;;;;;;20.87;63.80;98289.30;1765617;81;20506;-83
2021/09/27 07:37:40;;;;;;;;;;;;;;;20.96;61.00;98296.09;1765988;81;20145;-83
2021/09/27 07:40:07;;;;;;;;;;;;;;;21.32;61.50;98296.16;1765493;81;21852;-83
2021/09/27 07:42:33;;;;;;;;;;;;;;;21.55;59.56;98286.87;1765681;81;20155;-83
2021/09/27 07:44:59;;;;;;;;;;;;;;;22.02;59.10;98291.85;1765647;81;20188;-83
2021/09/27 07:47:24;;;;;;;;;;;;;;;22.40;59.79;98289.26;1748988;81;20498;-83
2021/09/27 07:49:50;;;;;;;;;;;;;;;22.70;57.32;98284.16;1765538;81;20189;-83
2021/09/27 07:52:16;;;;;;;;;;;;;;;22.42;55.49;98285.56;1765697;81;21915;-83
2021/09/27 07:54:42;;;;;;;;;;;;;;;23.13;57.80;98277.83;1765273;81;20200;-83
2021/09/27 07:57:07;;;;;;;;;;;;;;;23.25;53.92;98280.53;1765832;81;20279;-83
2021/09/27 07:59:33;;;;;;;;;;;;;;;24.24;53.52;98277.08;1765609;81;20641;-83
2021/09/27 08:01:59;;;;;;;;;;;;;;;24.79;56.12;98277.02;1765762;81;20213;-84
2021/09/27 08:04:25;;;;;;;;;;;;;;;24.92;57.82;98273.70;1748322;81;21625;-83
2021/09/27 08:06:50;;;;;;;;;;;;;;;25.14;50.78;98269.38;1765652;81;20401;-84
2021/09/27 08:09:16;;;;;;;;;;;;;;;25.79;54.86;98264.27;1765563;81;20204;-83
2021/09/27 08:11:43;;;;;;;;;;;;;;;26.52;54.35;98272.62;1765886;81;20156;-83
2021/09/27 08:14:10;;;;;;;;;;;;;;;27.20;55.28;98267.78;1765858;81;20143;-83
2021/09/27 08:16:36;;;;;;;;;;;;;;;27.74;52.84;98268.42;1735772;81;21228;-83
2021/09/27 08:19:02;;;;;;;;;;;;;;;26.95;46.34;98262.75;1765588;81;20188;-83
2021/09/27 08:21:28;;;;;;;;;;;;;;;27.12;47.08;98261.95;1765436;81;20221;-83
2021/09/27 08:23:54;;;;;;;;;;;;;;;26.84;45.65;98262.45;1765827;81;20141;-84
2021/09/27 08:26:20;;;;;;;;;;;;;;;27.49;43.89;98254.90;1765583;81;20153;-84
2021/09/27 08:28:46;;;;;;;;;;;;;;;28.36;46.91;98249.48;1758656;81;21032;-84
2021/09/27 08:31:17;;;;;;;;;;;;;;;28.94;44.96;98256.25;1738229;82;20297;-84
2021/09/27 08:33:43;;;;;;;;;;;;;;;29.05;40.51;98256.25;1738477;82;20143;-84
2021/09/27 08:36:11;;;;;;;;;;;;;;;29.74;44.04;98251.70;1738211;82;20243;-84
2021/09/27 08:38:37;;;;;;;;;;;;;;;29.66;40.13;98255.70;1738608;82;20407;-84
2021/09/27 08:41:07;;;;;;;;;;;;;;;30.48;43.10;98251.88;1738251;82;21199;-84
2021/09/27 08:44:06;;;;;;;;;;;;;;;31.04;43.42;98256.99;1738437;82;20120;-84
2021/09/27 08:46:42;;;;;;;;;;;;;;;30.56;37.55;98258.43;1698938;84;20152;-84
2021/09/27 08:49:23;;;;;;;;;;;;;;;29.98;38.25;98251.43;1687247;85;20140;-84
2021/09/27 08:51:49;;;;;;;;;;;;;;;29.88;44.06;98260.64;1691131;84;20196;-84
2021/09/27 08:54:19;;;;;;;;;;;;;;;28.09;47.45;98259.48;1758863;81;21048;-84
2021/09/27 08:57:06;;;;;;;;;;;;;;;26.79;49.67;98251.08;1759009;81;20112;-84
2021/09/27 08:59:38;;;;;;;;;;;;;;;25.48;51.01;98250.92;1758939;81;21112;-84
2021/09/27 09:02:27;;;;;;;;;;;;;;;24.50;52.81;98245.98;1758479;81;20180;-84
2021/09/27 09:05:08;;;;;;;;;;;;;;;23.47;55.00;98242.33;1741820;81;20188;-84
2021/09/27 09:07:47;;;;;;;;;;;;;;;22.75;56.01;98255.72;1758622;81;21117;-84
2021/09/27 09:10:13;;;;;;;;;;;;;;;21.81;57.26;98251.22;1759029;81;20096;-84
2021/09/27 09:12:51;;;;;;;;;;;;;;;21.06;58.75;98244.11;1741808;81;20270;-84
2021/09/27 09:15:24;;;;;;;;;;;;;;;20.55;61.48;98249.63;1758780;81;20179;-84
2021/09/27 09:17:53;;;;;;;;;;;;;;;20.03;62.47;98247.89;1759373;81;20148;-84
2021/09/27 09:20:25;;;;;;;;;;;;;;;19.65;64.00;98251.00;1758801;81;21222;-84
2021/09/27 09:22:51;;;;;;;;;;;;;;;19.40;65.86;98246.44;1759056;81;20176;-83
2021/09/27 09:25:28;;;;;;;;;;;;;;;19.09;70.73;98252.23;1741949;81;20137;-83
2021/09/27 09:27:54;;;;;;;;;;;;;;;18.85;72.33;98254.98;1759042;81;20137;-83
2021/09/27 09:30:22;;;;;;;;;;;;;;;18.66;72.99;98250.44;1729384;82;20200;-84
2021/09/27 09:32:50;;;;;;;;;;;;;;;18.63;71.32;98251.61;1756993;81;21350;-83
2021/09/27 09:35:28;;;;;;;;;;;;;;;18.50;69.54;98261.66;1746021;82;20162;-84
2021/09/27 09:38:06;;;;;;;;;;;;;;;18.38;72.64;98262.34;1756753;81;20169;-83
2021/09/27 09:40:37;;;;;;;;;;;;;;;18.38;70.63;98247.25;1756569;81;20242;-83
2021/09/27 09:43:10;;;;;;;;;;;;;;;18.30;72.24;98252.17;1756812;81;20173;-83
2021/09/27 09:45:39;;;;;;;;;;;;;;;18.25;72.37;98241.36;1756527;81;20991;-83
2021/09/27 09:48:19;;;;;;;;;;;;;;;18.14;74.26;98242.83;1757165;81;20157;-83
2021/09/27 09:50:46;;;;;;;;;;;;;;;18.10;75.32;98245.39;1756767;81;20173;-83
2021/09/27 09:53:26;;;;;;;;;;;;;;;18.24;73.05;98246.05;1756711;81;20189;-83
2021/09/27 09:55:58;;;;;;;;;;;;;;;18.30;73.73;98250.24;1756842;81;20220;-83
2021/09/27 09:58:37;;;;;;;;;;;;;;;18.25;73.89;98243.53;1754969;81;21285;-83
2021/09/27 10:01:06;;;;;;;;;;;;;;;18.17;74.02;98246.28;1756436;81;20168;-83
2021/09/27 10:03:39;;;;;;;;;;;;;;;18.07;75.24;98245.25;1757162;81;20173;-83
2021/09/27 10:06:07;;;;;;;;;;;;;;;18.11;73.76;98247.00;1756592;81;20186;-82
2021/09/27 10:08:34;;;;;;;;;;;;;;;18.04;74.53;98249.45;1731101;81;20425;-82
2021/09/27 10:11:05;;;;;;;;;;;;;;;17.97;75.50;98244.45;1731297;81;21043;-82
2021/09/27 10:13:44;;;;;;;;;;;;;;;17.99;75.48;98246.30;1756329;81;20174;-82
2021/09/27 10:16:29;;;;;;;;;;;;;;;18.03;75.41;98249.19;1756487;81;20158;-82
2021/09/27 10:18:57;;;;;;;;;;;;;;;18.00;76.79;98247.91;1756668;81;20485;-82
2021/09/27 10:21:26;;;;;;;;;;;;;;;17.88;77.02;98248.31;1727790;81;20185;-82
2021/09/27 10:23:56;;;;;;;;;;;;;;;17.85;77.39;98254.42;1756051;81;21299;-82
2021/09/27 10:26:36;;;;;;;;;;;;;;;17.90;77.29;98249.59;1756505;81;20173;-82
2021/09/27 10:29:08;;;;;;;;;;;;;;;17.89;77.12;98248.55;1756929;81;20132;-82
2021/09/27 10:31:37;;;;;;;;;;;;;;;17.90;76.40;98246.05;1754905;82;20139;-82
2021/09/27 10:34:06;;;;;;;;;;;;;;;17.94;76.82;98247.01;1751388;81;20140;-83
2021/09/27 10:36:39;;;;;;;;;;;;;;;17.94;77.06;98251.92;1755157;81;21017;-83
2021/09/27 10:39:06;;;;;;;;;;;;;;;18.02;76.40;98249.75;1753774;82;20450;-82
2021/09/27 10:41:38;;;;;;;;;;;;;;;18.10;76.54;98254.19;1768369;81;20158;-83
2021/09/27 10:44:15;;;;;;;;;;;;;;;18.09;77.21;98256.13;1768358;81;20155;-82
2021/09/27 10:46:42;;;;;;;;;;;;;;;18.07;77.18;98249.36;1768274;81;20185;-82
2021/09/27 10:49:14;;;;;;;;;;;;;;;18.08;76.96;98247.66;1742457;81;21075;-83
2021/09/27 10:51:40;;;;;;;;;;;;;;;18.13;76.66;98254.36;1768116;81;20146;-83
2021/09/27 10:54:16;;;;;;;;;;;;;;;18.17;77.08;98251.77;1768445;81;20434;-82
2021/09/27 10:56:48;;;;;;;;;;;;;;;18.06;78.69;98245.02;1754967;82;20127;-83
2021/09/27 10:59:16;;;;;;;;;;;;;;;18.14;77.02;98251.06;1756634;81;20209;-82
2021/09/27 11:01:53;;;;;;;;;;;;;;;18.04;78.92;98244.77;1754474;81;21229;-82
2021/09/27 11:04:23;;;;;;;;;;;;;;;18.13;77.41;98244.77;1772221;81;20386;-82
2021/09/27 11:06:51;;;;;;;;;;;;;;;18.21;77.96;98245.89;1785716;79;20176;-83
2021/09/27 11:09:29;;;;;;;;;;;;;;;18.31;77.31;98249.67;1785888;80;20156;-83
2021/09/27 11:12:00;;;;;;;;;;;;;;;18.33;77.04;98246.03;1786087;80;20137;-82
2021/09/27 11:14:38;;;;;;;;;;;;;;;18.26;77.38;98242.41;1785882;80;21059;-83
2021/09/27 11:17:13;;;;;;;;;;;;;;;18.25;77.32;98242.16;1785152;80;20161;-82
2021/09/27 11:19:40;;;;;;;;;;;;;;;18.21;78.20;98241.22;1785747;80;20160;-82
2021/09/27 11:22:21;;;;;;;;;;;;;;;18.15;78.23;98239.76;1785571;80;20132;-82
2021/09/27 11:24:48;;;;;;;;;;;;;;;18.20;77.76;98239.61;1785559;80;20125;-82
2021/09/27 11:27:21;;;;;;;;;;;;;;;18.09;79.20;98246.53;1785528;80;21221;-82
2021/09/27 11:29:54;;;;;;;;;;;;;;;18.20;78.31;98231.38;1784001;80;20140;-82
2021/09/27 11:32:28;;;;;;;;;;;;;;;18.25;78.09;98226.28;1782410;80;20168;-82
2021/09/27 11:35:00;;;;;;;;;;;;;;;18.33;77.97;98228.20;1781923;80;20467;-82
2021/09/27 11:37:43;;;;;;;;;;;;;;;18.41;77.82;98226.58;1782116;80;20092;-83
2021/09/27 11:40:15;;;;;;;;;;;;;;;18.45;78.40;98219.30;1781890;80;21823;-83
2021/09/27 11:42:56;;;;;;;;;;;;;;;18.61;77.84;98222.56;1782162;80;20185;-83
2021/09/27 11:45:39;;;;;;;;;;;;;;;18.71;77.37;98217.31;1782155;80;20144;-83
2021/09/27 11:48:12;;;;;;;;;;;;;;;18.71;77.50;98218.69;1779857;80;20389;-82
2021/09/27 11:50:48;;;;;;;;;;;;;;;18.76;77.45;98218.52;1761659;80;20393;-82
2021/09/27 11:53:31;;;;;;;;;;;;;;;18.80;77.41;98215.91;1782078;80;21141;-82
2021/09/27 11:56:04;;;;;;;;;;;;;;;18.85;77.47;98207.50;1781844;79;20424;-82
2021/09/27 11:58:41;;;;;;;;;;;;;;;18.90;77.84;98210.65;1781276;80;20133;-82
2021/09/27 12:01:27;;;;;;;;;;;;;;;18.95;77.75;98216.74;1781848;80;20404;-82
2021/09/27 12:03:59;;;;;;;;;;;;;;;18.99;77.59;98212.79;1782199;80;20163;-82
2021/09/27 12:06:36;;;;;;;;;;;;;;;19.06;77.72;98204.28;1781975;80;20596;-82
2021/09/27 12:09:08;;;;;;;;;;;;;;;18.90;77.75;98203.22;1751820;80;20164;-82
2021/09/27 12:11:37;;;;;;;;;;;;;;;19.10;77.35;98200.29;1781977;79;20149;-82
2021/09/27 12:14:03;;;;;;;;;;;;;;;19.20;77.09;98197.16;1752373;80;20133;-82
2021/09/27 12:16:37;;;;;;;;;;;;;;;19.30;77.10;98204.20;1782064;79;20160;-82
2021/09/27 12:19:18;;;;;;;;;;;;;;;19.30;76.51;98199.52;1782187;80;21780;-82
2021/09/27 12:21:50;;;;;;;;;;;;;;;19.29;76.62;98203.98;1781834;80;20133;-82
2021/09/27 12:24:23;;;;;;;;;;;;;;;19.20;77.24;98197.16;1782142;80;20128;-82
2021/09/27 12:27:05;;;;;;;;;;;;;;;19.29;76.85;98197.11;1781826;79;20168;-82
2021/09/27 12:29:33;;;;;;;;;;;;;;;19.38;76.82;98195.11;1782026;80;20125;-83
2021/09/27 12:32:01;;;;;;;;;;;;;;;19.42;76.73;98190.00;1781381;80;21073;-82
2021/09/27 12:34:44;;;;;;;;;;;;;;;19.40;77.30;98196.41;1782527;80;20121;-83
2021/09/27 12:37:11;;;;;;;;;;;;;;;19.43;76.90;98186.11;1782018;80;20384;-83
2021/09/27 12:39:37;;;;;;;;;;;;;;;19.55;76.81;98192.81;1781914;80;20133;-83
2021/09/27 12:42:06;;;;;;;;;;;;;;;19.45;77.18;98187.95;1782042;80;20143;-83
2021/09/27 12:44:35;;;;;;;;;;;;;;;19.51;77.21;98183.08;1781925;80;21814;-83
2021/09/27 12:47:04;;;;;;;;;;;;;;;19.66;76.54;98178.97;1781151;80;20597;-83
2021/09/27 12:49:39;;;;;;;;;;;;;;;19.68;76.84;98178.05;1781928;80;20417;-83
2021/09/27 12:52:06;;;;;;;;;;;;;;;19.66;76.67;98181.71;1781967;80;20141;-83
2021/09/27 12:54:45;;;;;;;;;;;;;;;19.82;76.28;98175.02;1781957;80;20467;-82
2021/09/27 12:57:33;;;;;;;;;;;;;;;19.79;76.48;98177.88;1782137;80;21640;-82
2021/09/27 12:59:59;;;;;;;;;;;;;;;19.92;76.22;98180.13;1776016;80;20133;-83
2021/09/27 13:02:27;;;;;;;;;;;;;;;20.02;76.04;98174.78;1782112;80;20186;-83
2021/09/27 13:05:03;;;;;;;;;;;;;;;20.03;75.98;98175.01;1781773;80;20204;-82
2021/09/27 13:07:32;;;;;;;;;;;;;;;20.20;76.09;98176.22;1781711;80;20157;-82
2021/09/27 13:10:09;;;;;;;;;;;;;;;20.34;76.00;98171.23;1780794;80;21251;-82
2021/09/27 13:12:39;;;;;;;;;;;;;;;20.44;75.76;98168.06;1779043;79;20137;-82
2021/09/27 13:15:14;;;;;;;;;;;;;;;20.54;75.71;98170.38;1781952;80;20124;-82
2021/09/27 13:18:10;;;;;;;;;;;;;;;20.62;75.30;98170.63;1754121;80;20125;-83
2021/09/27 13:20:56;;;;;;;;;;;;;;;20.68;75.01;98176.11;1781946;79;20382;-83
2021/09/27 13:23:24;;;;;;;;;;;;;;;20.70;74.77;98173.84;1782121;80;21710;-83
2021/09/27 13:25:55;;;;;;;;;;;;;;;20.77;74.13;98172.71;1781781;79;20239;-83